createdAt,value
2022-12-23T00:01:31.093Z,47.15
2022-12-23T00:04:32.590Z,67.43
2022-12-23T00:07:34.384Z,53.58
2022-12-23T00:10:39.976Z,54.92
2022-12-23T00:13:41.559Z,61.17
2022-12-23T00:16:43.118Z,61.88
2022-12-23T00:19:44.659Z,59.15
2022-12-23T00:22:46.253Z,64.72
2022-12-23T00:25:47.943Z,66.28
2022-12-23T00:28:50.428Z,52.70
2022-12-23T00:31:52.037Z,60.83
2022-12-23T00:34:53.735Z,57.10
2022-12-23T00:37:55.283Z,47.03
2022-12-23T00:40:56.806Z,64.15
2022-12-23T00:43:58.748Z,71.53
2022-12-23T00:47:00.295Z,62.35
2022-12-23T00:50:01.809Z,71.15
2022-12-23T00:53:03.891Z,64.03
2022-12-23T00:56:05.698Z,68.32
2022-12-23T00:59:07.268Z,62.80
2022-12-23T01:02:11.625Z,64.82
2022-12-23T01:05:13.361Z,66.13
2022-12-23T01:08:14.946Z,60.95
2022-12-23T01:11:16.535Z,64.13
2022-12-23T01:14:18.169Z,70.45
2022-12-23T01:17:20.032Z,61.08
2022-12-23T01:20:21.702Z,51.30
2022-12-23T01:23:23.203Z,55.53
2022-12-23T01:26:24.721Z,52.05
2022-12-23T01:29:27.336Z,56.95
2022-12-23T01:32:29.103Z,48.97
2022-12-23T01:35:30.793Z,47.95
2022-12-23T01:38:33.115Z,38.10
2022-12-23T01:41:34.804Z,35.30
2022-12-23T01:44:58.164Z,39.08
2022-12-23T01:48:24.784Z,55.42
2022-12-23T01:51:29.866Z,49.22
2022-12-23T01:54:32.192Z,36.58
2022-12-23T01:57:35.617Z,31.63
2022-12-23T02:00:41.291Z,37.80
2022-12-23T02:03:44.455Z,31.65
2022-12-23T02:06:49.825Z,45.93
2022-12-23T02:09:54.332Z,40.72
2022-12-23T02:13:11.780Z,45.58
2022-12-23T02:16:15.086Z,45.25
2022-12-23T02:19:38.356Z,43.85
2022-12-23T02:23:07.830Z,42.75
2022-12-23T02:26:34.348Z,46.47
2022-12-23T02:29:57.531Z,49.55
2022-12-23T02:33:18.374Z,48.58
2022-12-23T02:36:50.779Z,55.22
2022-12-23T02:40:07.561Z,56.10
2022-12-23T02:43:19.081Z,54.72
2022-12-23T02:46:23.494Z,64.55
2022-12-23T02:49:38.222Z,60.65
2022-12-23T02:52:43.513Z,61.50
2022-12-23T02:55:48.593Z,58.53
2022-12-23T02:59:01.579Z,61.72
2022-12-23T03:02:03.336Z,65.20
2022-12-23T03:05:06.179Z,60.40
2022-12-23T03:08:36.508Z,57.70
2022-12-23T03:11:38.050Z,64.25
2022-12-23T03:15:02.849Z,58.50
2022-12-23T03:21:32.119Z,56.67
2022-12-23T03:24:49.156Z,58.30
2022-12-23T03:28:15.588Z,64.43
2022-12-23T03:31:22.514Z,51.00
2022-12-23T03:34:28.306Z,53.03
2022-12-23T03:37:34.107Z,54.85
2022-12-23T03:40:41.407Z,52.35
2022-12-23T03:43:52.939Z,49.33
2022-12-23T03:47:09.612Z,54.25
2022-12-23T03:50:14.445Z,52.03
2022-12-23T03:53:25.785Z,43.63
2022-12-23T03:56:41.934Z,47.10
2022-12-23T03:59:47.057Z,45.70
2022-12-23T04:03:03.346Z,45.03
2022-12-23T04:06:07.811Z,48.85
2022-12-23T04:09:11.571Z,53.53
2022-12-23T04:12:15.154Z,51.83
2022-12-23T04:15:25.526Z,51.63
2022-12-23T04:18:27.720Z,52.15
2022-12-23T04:21:29.252Z,50.25
2022-12-23T04:24:30.858Z,54.80
2022-12-23T04:27:32.346Z,56.75
2022-12-23T04:30:35.023Z,58.92
2022-12-23T04:33:36.806Z,61.20
2022-12-23T04:36:38.360Z,53.53
2022-12-23T04:39:39.914Z,46.63
2022-12-23T04:42:41.581Z,58.33
2022-12-23T04:45:43.144Z,47.40
2022-12-23T04:48:44.741Z,41.38
2022-12-23T04:51:46.263Z,43.75
2022-12-23T04:54:47.868Z,38.78
2022-12-23T04:57:49.449Z,38.33
2022-12-23T05:01:05.025Z,47.10
2022-12-23T05:04:06.609Z,38.55
2022-12-23T05:07:08.142Z,44.28
2022-12-23T05:10:10.301Z,38.65
2022-12-23T05:13:11.988Z,38.47
2022-12-23T05:16:13.650Z,42.53
2022-12-23T05:19:15.502Z,41.55
2022-12-23T05:22:16.989Z,40.72
2022-12-23T05:25:18.570Z,46.42
2022-12-23T05:28:21.679Z,50.25
2022-12-23T05:31:23.200Z,45.67
2022-12-23T05:34:24.818Z,43.72
2022-12-23T05:37:26.379Z,42.45
2022-12-23T05:40:29.140Z,45.47
2022-12-23T05:43:33.367Z,44.25
2022-12-23T05:46:34.984Z,52.95
2022-12-23T05:49:36.751Z,48.58
2022-12-23T05:52:38.606Z,44.67
2022-12-23T05:55:40.051Z,45.15
2022-12-23T05:58:41.631Z,38.97
2022-12-23T06:01:43.258Z,38.50
2022-12-23T06:04:44.847Z,40.75
2022-12-23T06:07:46.436Z,43.22
2022-12-23T06:10:48.164Z,40.60
2022-12-23T06:13:49.597Z,53.75
2022-12-23T06:16:51.206Z,41.92
2022-12-23T06:19:52.695Z,45.28
2022-12-23T06:22:54.258Z,52.15
2022-12-23T06:26:05.767Z,42.08
2022-12-23T06:29:07.301Z,53.33
2022-12-23T06:32:09.101Z,50.55
2022-12-23T06:35:10.620Z,54.53
2022-12-23T06:38:12.529Z,67.35
2022-12-23T06:41:13.978Z,59.38
2022-12-23T06:44:15.762Z,61.35
2022-12-23T06:47:17.401Z,94.53
2022-12-23T06:50:18.907Z,79.65
2022-12-23T06:53:20.410Z,75.22
2022-12-23T06:56:22.002Z,73.78
2022-12-23T06:59:23.583Z,83.38
2022-12-23T07:02:25.253Z,74.38
2022-12-23T07:05:31.911Z,93.57
2022-12-23T07:08:36.751Z,79.60
2022-12-23T07:11:38.368Z,83.07
2022-12-23T07:14:39.971Z,74.80
2022-12-23T07:17:41.436Z,73.10
2022-12-23T07:20:42.936Z,93.80
2022-12-23T07:23:44.515Z,87.85
2022-12-23T07:26:46.083Z,80.72
2022-12-23T07:29:47.620Z,76.20
2022-12-23T07:32:50.610Z,77.90
2022-12-23T07:35:52.135Z,79.55
2022-12-23T07:38:53.642Z,74.28
2022-12-23T07:42:16.611Z,86.80
2022-12-23T07:45:17.131Z,86.65
2022-12-23T07:48:18.736Z,105.72
2022-12-23T07:51:20.241Z,110.22
2022-12-23T07:54:21.760Z,125.25
2022-12-23T07:57:23.356Z,160.50
2022-12-23T08:00:25.027Z,121.78
2022-12-23T08:03:26.630Z,174.40
2022-12-23T08:06:28.190Z,115.55
2022-12-23T08:09:29.718Z,114.93
2022-12-23T08:12:31.281Z,148.30
2022-12-23T08:15:32.822Z,119.55
2022-12-23T08:18:36.765Z,108.13
2022-12-23T08:21:38.233Z,119.03
2022-12-23T08:24:39.767Z,143.63
2022-12-23T08:27:41.300Z,114.55
2022-12-23T08:30:43.024Z,110.60
2022-12-23T08:33:47.362Z,144.77
2022-12-23T08:36:49.111Z,145.80
2022-12-23T08:39:50.605Z,149.50
2022-12-23T08:42:52.123Z,107.13
2022-12-23T08:45:53.945Z,113.10
2022-12-23T08:48:55.981Z,109.53
2022-12-23T08:51:57.557Z,113.45
2022-12-23T08:54:59.054Z,97.68
2022-12-23T08:58:00.592Z,80.97
2022-12-23T09:01:07.242Z,86.35
2022-12-23T09:04:09.373Z,77.88
2022-12-23T09:07:10.850Z,86.70
2022-12-23T09:10:12.290Z,91.90
2022-12-23T09:13:19.942Z,88.32
2022-12-23T09:16:27.707Z,72.32
2022-12-23T09:19:29.241Z,62.30
2022-12-23T09:22:32.870Z,68.53
2022-12-23T09:25:35.980Z,69.43
2022-12-23T09:28:37.670Z,75.95
2022-12-23T09:31:39.442Z,60.90
2022-12-23T09:34:40.992Z,59.50
2022-12-23T09:37:42.870Z,74.70
2022-12-23T09:40:44.358Z,63.75
2022-12-23T09:43:54.765Z,70.30
2022-12-23T09:47:05.903Z,72.70
2022-12-23T09:50:28.449Z,74.32
2022-12-23T09:53:46.242Z,76.00
2022-12-23T09:56:57.512Z,72.38
2022-12-23T10:00:05.224Z,66.90
2022-12-23T10:03:32.533Z,64.50
2022-12-23T10:06:35.685Z,76.40
2022-12-23T10:09:40.985Z,88.57
2022-12-23T10:12:46.945Z,167.80
2022-12-23T10:15:51.447Z,120.75
2022-12-23T10:19:06.714Z,152.05
2022-12-23T10:22:30.050Z,169.70
2022-12-23T10:25:44.181Z,176.60
2022-12-23T10:28:45.647Z,139.73
2022-12-23T10:32:04.039Z,193.23
2022-12-23T10:35:33.061Z,149.55
2022-12-23T10:38:34.499Z,180.95
2022-12-23T10:41:43.463Z,174.85
2022-12-23T10:45:14.415Z,151.30
2022-12-23T10:48:37.714Z,188.00
2022-12-23T10:51:57.094Z,190.35
2022-12-23T10:54:58.649Z,179.35
2022-12-23T10:58:07.573Z,204.30
2022-12-23T11:01:18.922Z,165.38
2022-12-23T11:04:38.461Z,155.18
2022-12-23T11:07:45.138Z,174.30
2022-12-23T11:10:48.168Z,154.45
2022-12-23T11:13:49.764Z,141.40
2022-12-23T11:16:51.468Z,141.35
2022-12-23T11:20:16.497Z,137.95
2022-12-23T11:23:27.363Z,143.30
2022-12-23T11:26:28.966Z,148.43
2022-12-23T11:29:36.666Z,144.13
2022-12-23T11:32:38.443Z,152.75
2022-12-23T11:35:40.118Z,153.52
2022-12-23T11:38:53.914Z,143.10
2022-12-23T11:42:04.617Z,157.23
2022-12-23T11:45:07.801Z,174.75
2022-12-23T11:48:27.927Z,185.00
2022-12-23T11:51:29.534Z,170.55
2022-12-23T11:54:33.619Z,183.38
2022-12-23T11:57:44.824Z,176.00
2022-12-23T12:00:55.877Z,191.23
2022-12-23T12:04:01.924Z,179.82
2022-12-23T12:07:06.208Z,154.15
2022-12-23T12:13:22.786Z,165.68
2022-12-23T12:16:46.544Z,185.18
2022-12-23T12:20:00.562Z,171.60
2022-12-23T12:23:17.970Z,172.85
2022-12-23T12:26:32.725Z,159.05
2022-12-23T12:29:43.463Z,153.85
2022-12-23T12:32:59.328Z,154.23
2022-12-23T12:36:13.299Z,158.27
2022-12-23T12:39:28.501Z,153.55
2022-12-23T12:42:40.431Z,150.98
2022-12-23T12:45:50.174Z,122.90
2022-12-23T12:48:59.273Z,123.43
2022-12-23T12:52:11.763Z,100.93
2022-12-23T12:55:27.573Z,105.32
2022-12-23T12:58:29.186Z,95.82
2022-12-23T13:01:52.756Z,98.90
2022-12-23T13:05:19.504Z,96.07
2022-12-23T13:08:52.297Z,89.63
2022-12-23T13:12:24.637Z,80.93
2022-12-23T13:15:54.412Z,85.22
2022-12-23T13:18:58.945Z,76.93
2022-12-23T13:22:15.857Z,83.43
2022-12-23T13:25:27.791Z,95.35
2022-12-23T13:28:29.298Z,81.53
2022-12-23T13:31:47.677Z,71.53
2022-12-23T13:35:02.865Z,69.75
2022-12-23T13:38:16.494Z,78.30
2022-12-23T13:41:30.150Z,81.30
2022-12-23T13:44:34.412Z,82.88
2022-12-23T13:48:05.617Z,81.28
2022-12-23T13:51:26.645Z,71.65
2022-12-23T13:54:46.639Z,71.53
2022-12-23T13:58:13.196Z,68.57
2022-12-23T14:01:14.720Z,80.15
2022-12-23T14:05:02.224Z,64.57
2022-12-23T14:08:07.182Z,61.35
2022-12-23T14:11:08.639Z,53.20
2022-12-23T14:14:19.908Z,55.97
2022-12-23T14:17:31.654Z,48.58
2022-12-23T14:21:11.451Z,50.30
2022-12-23T14:24:31.267Z,48.70
2022-12-23T14:27:49.515Z,44.45
2022-12-23T14:30:51.213Z,44.20
2022-12-23T14:33:52.937Z,40.47
2022-12-23T14:37:16.092Z,38.90
2022-12-23T14:40:39.469Z,43.63
2022-12-23T14:43:43.968Z,41.70
2022-12-23T14:46:45.583Z,41.05
2022-12-23T14:49:47.522Z,45.53
2022-12-23T14:52:59.557Z,46.50
2022-12-23T14:56:16.256Z,42.38
2022-12-23T14:59:37.359Z,49.08
2022-12-23T15:02:40.732Z,44.80
2022-12-23T15:05:43.494Z,50.08
2022-12-23T15:08:47.251Z,43.15
2022-12-23T15:11:50.407Z,40.33
2022-12-23T15:14:59.058Z,43.65
2022-12-23T15:18:05.745Z,45.55
2022-12-23T15:21:11.226Z,47.72
2022-12-23T15:24:18.153Z,43.83
2022-12-23T15:27:29.626Z,43.63
2022-12-23T15:30:45.978Z,49.97
2022-12-23T15:34:04.858Z,44.97
2022-12-23T15:37:24.511Z,47.20
2022-12-23T15:40:29.982Z,39.83
2022-12-23T15:43:32.122Z,37.97
2022-12-23T15:46:33.703Z,41.03
2022-12-23T15:49:35.266Z,43.00
2022-12-23T15:52:40.961Z,38.60
2022-12-23T15:55:43.249Z,36.13
2022-12-23T15:58:44.945Z,38.15
2022-12-23T16:01:46.697Z,44.35
2022-12-23T16:04:54.207Z,46.80
2022-12-23T16:08:14.568Z,39.40
2022-12-23T16:11:18.981Z,50.08
2022-12-23T16:14:36.387Z,43.83
2022-12-23T16:17:38.562Z,50.25
2022-12-23T16:20:46.196Z,53.97
2022-12-23T16:23:51.648Z,52.38
2022-12-23T16:26:54.251Z,51.75
2022-12-23T16:29:57.873Z,53.90
2022-12-23T16:33:01.806Z,55.28
2022-12-23T16:36:27.012Z,57.17
2022-12-23T16:39:28.574Z,56.90
2022-12-23T16:42:30.091Z,57.78
2022-12-23T16:45:33.299Z,51.35
2022-12-23T16:48:58.913Z,49.70
2022-12-23T16:52:00.906Z,58.08
2022-12-23T16:55:02.634Z,58.20
2022-12-23T16:58:04.151Z,51.67
2022-12-23T17:01:05.945Z,55.22
2022-12-23T17:04:07.919Z,60.97
2022-12-23T17:07:12.153Z,51.03
2022-12-23T17:13:18.545Z,48.55
2022-12-23T17:16:22.393Z,45.80
2022-12-23T17:19:29.424Z,26.95
2022-12-23T17:22:34.144Z,26.92
2022-12-23T17:25:35.639Z,24.88
2022-12-23T17:28:37.215Z,25.23
2022-12-23T17:31:40.507Z,25.67
2022-12-23T17:34:42.074Z,24.87
2022-12-23T17:37:43.620Z,25.92
2022-12-23T17:40:48.025Z,21.05
2022-12-23T17:43:49.971Z,26.20
2022-12-23T17:46:51.455Z,19.58
2022-12-23T17:49:53.273Z,26.92
2022-12-23T17:52:54.838Z,29.17
2022-12-23T17:55:56.391Z,37.42
2022-12-23T17:58:58.375Z,34.78
2022-12-23T18:01:59.983Z,34.22
2022-12-23T18:05:02.753Z,59.03
2022-12-23T18:08:04.408Z,47.67
2022-12-23T18:11:06.866Z,49.33
2022-12-23T18:14:16.383Z,62.72
2022-12-23T18:17:18.431Z,72.38
2022-12-23T18:20:22.553Z,60.35
2022-12-23T18:23:28.980Z,49.70
2022-12-23T18:26:30.575Z,51.25
2022-12-23T18:29:32.055Z,54.92
2022-12-23T18:32:35.381Z,68.50
2022-12-23T18:35:45.755Z,57.08
2022-12-23T18:38:47.578Z,59.00
2022-12-23T18:41:49.086Z,55.13
2022-12-23T18:44:50.597Z,73.88
2022-12-23T18:47:52.141Z,63.80
2022-12-23T18:50:53.672Z,55.60
2022-12-23T18:53:55.167Z,60.17
2022-12-23T18:57:00.016Z,41.22
2022-12-23T19:00:01.699Z,51.03
2022-12-23T19:03:03.250Z,64.10
2022-12-23T19:06:06.930Z,61.70
2022-12-23T19:09:14.233Z,59.38
2022-12-23T19:12:15.711Z,41.58
2022-12-23T19:15:17.397Z,55.00
2022-12-23T19:18:21.489Z,54.38
2022-12-23T19:21:23.020Z,53.95
2022-12-23T19:24:24.603Z,54.35
2022-12-23T19:27:26.158Z,51.05
2022-12-23T19:30:27.928Z,52.40
2022-12-23T19:33:32.309Z,46.78
2022-12-23T19:36:33.951Z,46.35
2022-12-23T19:39:35.426Z,55.38
2022-12-23T19:42:38.605Z,56.13
2022-12-23T19:45:40.182Z,38.55
2022-12-23T19:48:41.953Z,38.08
2022-12-23T19:51:43.632Z,37.28
2022-12-23T19:54:45.230Z,41.65
2022-12-23T19:57:46.733Z,43.28
2022-12-23T20:00:48.246Z,39.13
2022-12-23T20:03:50.697Z,31.63
2022-12-23T20:06:52.235Z,28.00
2022-12-23T20:09:53.743Z,32.28
2022-12-23T20:12:55.332Z,28.50
2022-12-23T20:15:57.057Z,33.38
2022-12-23T20:18:58.787Z,30.73
2022-12-23T20:22:00.318Z,25.17
2022-12-23T20:25:01.841Z,22.30
2022-12-23T20:28:03.416Z,22.55
2022-12-23T20:31:08.539Z,28.92
2022-12-23T20:34:14.803Z,24.13
2022-12-23T20:37:16.304Z,34.28
2022-12-23T20:40:18.227Z,24.20
2022-12-23T20:43:19.962Z,30.55
2022-12-23T20:46:21.904Z,23.05
2022-12-23T20:49:23.491Z,26.08
2022-12-23T20:52:25.047Z,24.80
2022-12-23T20:55:26.502Z,30.52
2022-12-23T20:58:28.028Z,27.33
2022-12-23T21:01:35.696Z,29.63
2022-12-23T21:04:37.300Z,21.67
2022-12-23T21:07:38.751Z,22.45
2022-12-23T21:10:40.300Z,20.17
2022-12-23T21:13:41.858Z,24.30
2022-12-23T21:16:43.598Z,24.23
2022-12-23T21:19:45.222Z,24.65
2022-12-23T21:22:46.690Z,24.30
2022-12-23T21:25:48.215Z,31.05
2022-12-23T21:28:51.793Z,21.05
2022-12-23T21:31:53.344Z,17.17
2022-12-23T21:34:54.890Z,16.02
2022-12-23T21:37:56.356Z,16.55
2022-12-23T21:41:02.577Z,24.15
2022-12-23T21:44:05.163Z,27.63
2022-12-23T21:47:06.747Z,23.17
2022-12-23T21:50:09.020Z,24.83
2022-12-23T21:53:10.521Z,25.27
2022-12-23T21:56:14.888Z,22.55
2022-12-23T21:59:16.373Z,24.35
2022-12-23T22:02:18.048Z,22.73
2022-12-23T22:05:19.553Z,27.02
2022-12-23T22:08:21.171Z,29.52
2022-12-23T22:11:25.548Z,23.55
2022-12-23T22:14:27.055Z,24.35
2022-12-23T22:17:28.557Z,25.17
2022-12-23T22:20:30.052Z,20.80
2022-12-23T22:23:31.602Z,28.55
2022-12-23T22:26:33.302Z,27.85
2022-12-23T22:29:34.826Z,21.83
2022-12-23T22:32:42.145Z,22.65
2022-12-23T22:35:52.840Z,29.67
2022-12-23T22:38:59.210Z,24.73
2022-12-23T22:42:00.693Z,22.63
2022-12-23T22:45:02.526Z,31.13
2022-12-23T22:48:04.252Z,21.50
2022-12-23T22:51:10.665Z,26.98
2022-12-23T22:54:13.205Z,27.63
2022-12-23T22:57:14.733Z,26.05
2022-12-23T23:00:16.461Z,30.55
2022-12-23T23:03:17.936Z,30.73
2022-12-23T23:06:19.536Z,28.75
2022-12-23T23:09:22.370Z,29.40
2022-12-23T23:12:23.828Z,32.08
2022-12-23T23:15:25.382Z,33.72
2022-12-23T23:18:27.742Z,31.10
2022-12-23T23:21:29.340Z,28.52
2022-12-23T23:24:31.472Z,28.25
2022-12-23T23:27:33.301Z,36.22
2022-12-23T23:30:36.146Z,36.97
2022-12-23T23:33:37.841Z,36.63
2022-12-23T23:36:40.056Z,40.08
2022-12-23T23:39:41.582Z,35.03
2022-12-23T23:42:43.040Z,43.00
2022-12-23T23:45:44.522Z,30.67
2022-12-23T23:48:47.472Z,30.23
2022-12-23T23:51:49.013Z,32.40
2022-12-23T23:54:50.445Z,22.83
2022-12-23T23:57:51.927Z,31.30
